sensor_id;sensor_type;location;lat;lon;timestamp;temperature;humidity
15113;DHT22;7657;50.140;7.076;2023-07-20T00:00:06;17.40;99.90
15113;DHT22;7657;50.140;7.076;2023-07-20T00:02:34;17.40;99.90
15113;DHT22;7657;50.140;7.076;2023-07-20T00:05:01;17.30;99.90
15113;DHT22;7657;50.140;7.076;2023-07-20T00:07:27;17.40;99.90
15113;DHT22;7657;50.140;7.076;2023-07-20T00:09:56;17.30;99.90
15113;DHT22;7657;50.140;7.076;2023-07-20T00:12:23;17.30;99.90
15113;DHT22;7657;50.140;7.076;2023-07-20T00:14:50;17.30;99.90
15113;DHT22;7657;50.140;7.076;2023-07-20T00:17:19;17.20;99.90
15113;DHT22;7657;50.140;7.076;2023-07-20T00:19:46;17.20;99.90
15113;DHT22;7657;50.140;7.076;2023-07-20T00:22:13;17.10;99.90
15113;DHT22;7657;50.140;7.076;2023-07-20T00:24:40;17.00;99.90
15113;DHT22;7657;50.140;7.076;2023-07-20T00:27:08;17.10;99.90
15113;DHT22;7657;50.140;7.076;2023-07-20T00:29:35;17.00;99.90
15113;DHT22;7657;50.140;7.076;2023-07-20T00:32:02;17.00;99.90
15113;DHT22;7657;50.140;7.076;2023-07-20T00:34:30;16.90;99.90
15113;DHT22;7657;50.140;7.076;2023-07-20T00:36:57;17.00;99.90
15113;DHT22;7657;50.140;7.076;2023-07-20T00:39:24;17.00;99.90
15113;DHT22;7657;50.140;7.076;2023-07-20T00:41:51;17.00;99.90
15113;DHT22;7657;50.140;7.076;2023-07-20T00:44:19;17.10;99.90
15113;DHT22;7657;50.140;7.076;2023-07-20T00:46:46;17.10;99.90
15113;DHT22;7657;50.140;7.076;2023-07-20T00:49:13;16.90;99.90
15113;DHT22;7657;50.140;7.076;2023-07-20T00:51:41;16.90;99.90
15113;DHT22;7657;50.140;7.076;2023-07-20T00:54:08;17.00;99.90
15113;DHT22;7657;50.140;7.076;2023-07-20T00:56:35;16.90;99.90
15113;DHT22;7657;50.140;7.076;2023-07-20T00:59:02;16.90;99.90
15113;DHT22;7657;50.140;7.076;2023-07-20T01:01:31;16.90;99.90
15113;DHT22;7657;50.140;7.076;2023-07-20T01:03:57;16.80;99.90
15113;DHT22;7657;50.140;7.076;2023-07-20T01:06:32;16.90;99.90
15113;DHT22;7657;50.140;7.076;2023-07-20T01:09:07;16.90;99.90
15113;DHT22;7657;50.140;7.076;2023-07-20T01:11:38;16.90;99.90
15113;DHT22;7657;50.140;7.076;2023-07-20T01:14:10;16.80;99.90
15113;DHT22;7657;50.140;7.076;2023-07-20T01:16:39;16.90;99.90
15113;DHT22;7657;50.140;7.076;2023-07-20T01:19:06;16.90;99.90
15113;DHT22;7657;50.140;7.076;2023-07-20T01:21:39;16.90;99.90
15113;DHT22;7657;50.140;7.076;2023-07-20T01:24:30;17.00;99.90
15113;DHT22;7657;50.140;7.076;2023-07-20T01:27:23;16.90;99.90
15113;DHT22;7657;50.140;7.076;2023-07-20T01:30:08;16.90;99.90
15113;DHT22;7657;50.140;7.076;2023-07-20T01:32:40;16.90;99.90
15113;DHT22;7657;50.140;7.076;2023-07-20T01:35:11;16.80;99.90
15113;DHT22;7657;50.140;7.076;2023-07-20T01:37:41;16.70;99.90
15113;DHT22;7657;50.140;7.076;2023-07-20T01:40:10;16.70;99.90
15113;DHT22;7657;50.140;7.076;2023-07-20T01:42:37;16.70;99.90
15113;DHT22;7657;50.140;7.076;2023-07-20T01:45:04;16.70;99.90
15113;DHT22;7657;50.140;7.076;2023-07-20T01:47:31;16.80;99.90
15113;DHT22;7657;50.140;7.076;2023-07-20T01:49:59;16.80;99.90
15113;DHT22;7657;50.140;7.076;2023-07-20T01:52:26;16.80;99.90
15113;DHT22;7657;50.140;7.076;2023-07-20T01:54:53;16.70;99.90
15113;DHT22;7657;50.140;7.076;2023-07-20T01:57:20;16.70;99.90
15113;DHT22;7657;50.140;7.076;2023-07-20T01:59:47;16.70;99.90
15113;DHT22;7657;50.140;7.076;2023-07-20T02:02:14;16.60;99.90
15113;DHT22;7657;50.140;7.076;2023-07-20T02:04:40;16.50;99.90
15113;DHT22;7657;50.140;7.076;2023-07-20T02:07:09;16.50;99.90
15113;DHT22;7657;50.140;7.076;2023-07-20T02:09:36;16.50;99.90
15113;DHT22;7657;50.140;7.076;2023-07-20T02:12:03;16.50;99.90
15113;DHT22;7657;50.140;7.076;2023-07-20T02:14:30;16.50;99.90
15113;DHT22;7657;50.140;7.076;2023-07-20T02:16:57;16.50;99.90
15113;DHT22;7657;50.140;7.076;2023-07-20T02:19:25;16.40;99.90
15113;DHT22;7657;50.140;7.076;2023-07-20T02:21:52;16.30;99.90
15113;DHT22;7657;50.140;7.076;2023-07-20T02:24:20;16.30;99.90
15113;DHT22;7657;50.140;7.076;2023-07-20T02:26:47;16.30;99.90
15113;DHT22;7657;50.140;7.076;2023-07-20T02:29:14;16.30;99.90
15113;DHT22;7657;50.140;7.076;2023-07-20T02:31:41;16.20;99.90
15113;DHT22;7657;50.140;7.076;2023-07-20T02:34:08;16.20;99.90
15113;DHT22;7657;50.140;7.076;2023-07-20T02:36:35;16.20;99.90
15113;DHT22;7657;50.140;7.076;2023-07-20T02:39:02;16.10;99.90
15113;DHT22;7657;50.140;7.076;2023-07-20T02:43:58;16.20;99.90
15113;DHT22;7657;50.140;7.076;2023-07-20T02:46:25;16.20;99.90
15113;DHT22;7657;50.140;7.076;2023-07-20T02:48:52;16.20;99.90
15113;DHT22;7657;50.140;7.076;2023-07-20T02:51:19;16.00;99.90
15113;DHT22;7657;50.140;7.076;2023-07-20T02:53:46;16.10;99.90
15113;DHT22;7657;50.140;7.076;2023-07-20T02:56:13;16.20;99.90
15113;DHT22;7657;50.140;7.076;2023-07-20T02:58:42;16.10;99.90
15113;DHT22;7657;50.140;7.076;2023-07-20T03:01:11;16.20;99.90
15113;DHT22;7657;50.140;7.076;2023-07-20T03:03:38;16.30;99.90
15113;DHT22;7657;50.140;7.076;2023-07-20T03:06:05;16.40;99.90
15113;DHT22;7657;50.140;7.076;2023-07-20T03:08:34;16.40;99.90
15113;DHT22;7657;50.140;7.076;2023-07-20T03:11:01;16.40;99.90
15113;DHT22;7657;50.140;7.076;2023-07-20T03:13:28;16.40;99.90
15113;DHT22;7657;50.140;7.076;2023-07-20T03:15:56;16.30;99.90
15113;DHT22;7657;50.140;7.076;2023-07-20T03:18:23;16.40;99.90
15113;DHT22;7657;50.140;7.076;2023-07-20T03:20:50;16.40;99.90
15113;DHT22;7657;50.140;7.076;2023-07-20T03:23:17;16.40;99.90
15113;DHT22;7657;50.140;7.076;2023-07-20T03:25:44;16.40;99.90
15113;DHT22;7657;50.140;7.076;2023-07-20T03:28:11;16.40;99.90
15113;DHT22;7657;50.140;7.076;2023-07-20T03:30:37;16.40;99.90
15113;DHT22;7657;50.140;7.076;2023-07-20T03:33:06;16.40;99.90
15113;DHT22;7657;50.140;7.076;2023-07-20T03:35:33;16.40;99.90
15113;DHT22;7657;50.140;7.076;2023-07-20T03:37:59;16.40;99.90
15113;DHT22;7657;50.140;7.076;2023-07-20T03:40:26;16.40;99.90
15113;DHT22;7657;50.140;7.076;2023-07-20T03:42:53;16.40;99.90
15113;DHT22;7657;50.140;7.076;2023-07-20T03:45:20;16.40;99.90
15113;DHT22;7657;50.140;7.076;2023-07-20T03:47:49;16.40;99.90
15113;DHT22;7657;50.140;7.076;2023-07-20T03:50:17;16.40;99.90
15113;DHT22;7657;50.140;7.076;2023-07-20T03:52:44;16.40;99.90
15113;DHT22;7657;50.140;7.076;2023-07-20T03:55:11;16.40;99.90
15113;DHT22;7657;50.140;7.076;2023-07-20T03:57:38;16.30;99.90
15113;DHT22;7657;50.140;7.076;2023-07-20T04:00:06;16.20;99.90
15113;DHT22;7657;50.140;7.076;2023-07-20T04:02:33;16.20;99.90
15113;DHT22;7657;50.140;7.076;2023-07-20T04:05:00;16.30;99.90
15113;DHT22;7657;50.140;7.076;2023-07-20T04:07:28;16.20;99.90
15113;DHT22;7657;50.140;7.076;2023-07-20T04:09:55;16.20;99.90
15113;DHT22;7657;50.140;7.076;2023-07-20T04:12:22;16.10;99.90
15113;DHT22;7657;50.140;7.076;2023-07-20T04:14:49;16.20;99.90
15113;DHT22;7657;50.140;7.076;2023-07-20T04:17:16;16.20;99.90
15113;DHT22;7657;50.140;7.076;2023-07-20T04:19:42;16.20;99.90
15113;DHT22;7657;50.140;7.076;2023-07-20T04:22:09;16.30;99.90
15113;DHT22;7657;50.140;7.076;2023-07-20T04:24:37;16.20;99.90
15113;DHT22;7657;50.140;7.076;2023-07-20T04:27:05;16.20;99.90
15113;DHT22;7657;50.140;7.076;2023-07-20T04:29:31;16.10;99.90
15113;DHT22;7657;50.140;7.076;2023-07-20T04:31:58;16.20;99.90
15113;DHT22;7657;50.140;7.076;2023-07-20T04:34:25;16.20;99.90
15113;DHT22;7657;50.140;7.076;2023-07-20T04:36:52;16.10;99.90
15113;DHT22;7657;50.140;7.076;2023-07-20T04:39:19;16.20;99.90
15113;DHT22;7657;50.140;7.076;2023-07-20T04:41:47;16.10;99.90
15113;DHT22;7657;50.140;7.076;2023-07-20T04:44:14;16.10;99.90
15113;DHT22;7657;50.140;7.076;2023-07-20T04:46:41;16.00;99.90
15113;DHT22;7657;50.140;7.076;2023-07-20T04:49:08;16.00;99.90
15113;DHT22;7657;50.140;7.076;2023-07-20T04:51:35;15.80;99.90
15113;DHT22;7657;50.140;7.076;2023-07-20T04:54:02;15.90;99.90
15113;DHT22;7657;50.140;7.076;2023-07-20T04:56:29;15.90;99.90
15113;DHT22;7657;50.140;7.076;2023-07-20T04:58:57;15.90;99.90
15113;DHT22;7657;50.140;7.076;2023-07-20T05:01:24;16.00;99.90
15113;DHT22;7657;50.140;7.076;2023-07-20T05:03:52;15.90;99.90
15113;DHT22;7657;50.140;7.076;2023-07-20T05:06:19;15.90;99.90
15113;DHT22;7657;50.140;7.076;2023-07-20T05:08:46;15.90;99.90
15113;DHT22;7657;50.140;7.076;2023-07-20T05:11:13;15.80;99.90
15113;DHT22;7657;50.140;7.076;2023-07-20T05:13:40;15.90;99.90
15113;DHT22;7657;50.140;7.076;2023-07-20T05:16:08;15.70;99.90
15113;DHT22;7657;50.140;7.076;2023-07-20T05:18:35;15.70;99.90
15113;DHT22;7657;50.140;7.076;2023-07-20T05:21:02;15.60;99.90
15113;DHT22;7657;50.140;7.076;2023-07-20T05:23:29;15.60;99.90
15113;DHT22;7657;50.140;7.076;2023-07-20T05:25:56;15.60;99.90
15113;DHT22;7657;50.140;7.076;2023-07-20T05:28:23;15.50;99.90
15113;DHT22;7657;50.140;7.076;2023-07-20T05:30:50;15.40;99.90
15113;DHT22;7657;50.140;7.076;2023-07-20T05:33:19;15.40;99.90
15113;DHT22;7657;50.140;7.076;2023-07-20T05:35:46;15.20;99.90
15113;DHT22;7657;50.140;7.076;2023-07-20T05:38:14;15.20;99.90
15113;DHT22;7657;50.140;7.076;2023-07-20T05:40:42;15.30;99.90
15113;DHT22;7657;50.140;7.076;2023-07-20T05:43:09;15.20;99.90
15113;DHT22;7657;50.140;7.076;2023-07-20T05:45:37;15.30;99.90
15113;DHT22;7657;50.140;7.076;2023-07-20T05:48:04;15.30;99.90
15113;DHT22;7657;50.140;7.076;2023-07-20T05:50:33;15.20;99.90
15113;DHT22;7657;50.140;7.076;2023-07-20T05:52:59;15.10;99.90
15113;DHT22;7657;50.140;7.076;2023-07-20T05:55:26;15.00;99.90
15113;DHT22;7657;50.140;7.076;2023-07-20T05:57:53;15.10;99.90
15113;DHT22;7657;50.140;7.076;2023-07-20T06:00:21;15.30;99.90
15113;DHT22;7657;50.140;7.076;2023-07-20T06:02:52;15.30;99.90
15113;DHT22;7657;50.140;7.076;2023-07-20T06:05:18;15.40;99.90
15113;DHT22;7657;50.140;7.076;2023-07-20T06:07:47;15.50;99.90
15113;DHT22;7657;50.140;7.076;2023-07-20T06:10:14;15.60;99.90
15113;DHT22;7657;50.140;7.076;2023-07-20T06:12:40;15.50;99.90
15113;DHT22;7657;50.140;7.076;2023-07-20T06:15:24;15.60;99.90
15113;DHT22;7657;50.140;7.076;2023-07-20T06:17:51;15.80;99.90
15113;DHT22;7657;50.140;7.076;2023-07-20T06:20:18;16.00;99.90
15113;DHT22;7657;50.140;7.076;2023-07-20T06:22:46;16.10;99.90
15113;DHT22;7657;50.140;7.076;2023-07-20T06:25:13;16.00;99.90
15113;DHT22;7657;50.140;7.076;2023-07-20T06:27:41;16.10;99.90
15113;DHT22;7657;50.140;7.076;2023-07-20T06:30:09;16.20;99.90
15113;DHT22;7657;50.140;7.076;2023-07-20T06:32:36;16.40;99.90
15113;DHT22;7657;50.140;7.076;2023-07-20T06:35:03;16.60;99.90
15113;DHT22;7657;50.140;7.076;2023-07-20T06:37:30;16.70;99.90
15113;DHT22;7657;50.140;7.076;2023-07-20T06:39:59;16.70;99.90
15113;DHT22;7657;50.140;7.076;2023-07-20T06:42:26;16.90;99.90
15113;DHT22;7657;50.140;7.076;2023-07-20T06:44:53;17.10;99.90
15113;DHT22;7657;50.140;7.076;2023-07-20T06:47:20;17.20;99.90
15113;DHT22;7657;50.140;7.076;2023-07-20T06:49:47;17.10;99.90
15113;DHT22;7657;50.140;7.076;2023-07-20T06:52:14;17.20;99.90
15113;DHT22;7657;50.140;7.076;2023-07-20T06:54:41;17.20;99.90
15113;DHT22;7657;50.140;7.076;2023-07-20T06:57:09;17.30;99.90
15113;DHT22;7657;50.140;7.076;2023-07-20T06:59:36;17.40;99.90
15113;DHT22;7657;50.140;7.076;2023-07-20T07:02:03;17.40;99.90
15113;DHT22;7657;50.140;7.076;2023-07-20T07:04:30;17.50;99.90
15113;DHT22;7657;50.140;7.076;2023-07-20T07:06:58;17.40;99.90
15113;DHT22;7657;50.140;7.076;2023-07-20T07:09:25;17.40;99.90
15113;DHT22;7657;50.140;7.076;2023-07-20T07:11:52;17.40;99.90
15113;DHT22;7657;50.140;7.076;2023-07-20T07:14:20;17.40;99.90
15113;DHT22;7657;50.140;7.076;2023-07-20T07:16:47;17.40;99.90
15113;DHT22;7657;50.140;7.076;2023-07-20T07:19:14;17.30;99.90
15113;DHT22;7657;50.140;7.076;2023-07-20T07:21:41;17.30;99.90
15113;DHT22;7657;50.140;7.076;2023-07-20T07:24:08;17.30;99.90
15113;DHT22;7657;50.140;7.076;2023-07-20T07:26:35;17.40;99.90
15113;DHT22;7657;50.140;7.076;2023-07-20T07:29:02;17.60;99.90
15113;DHT22;7657;50.140;7.076;2023-07-20T07:31:34;17.70;99.90
15113;DHT22;7657;50.140;7.076;2023-07-20T07:34:01;17.80;99.90
15113;DHT22;7657;50.140;7.076;2023-07-20T07:36:28;17.90;99.90
15113;DHT22;7657;50.140;7.076;2023-07-20T07:38:55;18.00;99.90
15113;DHT22;7657;50.140;7.076;2023-07-20T07:41:22;18.10;99.90
15113;DHT22;7657;50.140;7.076;2023-07-20T07:43:49;18.20;99.90
15113;DHT22;7657;50.140;7.076;2023-07-20T07:46:16;18.20;99.90
15113;DHT22;7657;50.140;7.076;2023-07-20T07:48:44;18.30;99.90
15113;DHT22;7657;50.140;7.076;2023-07-20T07:51:11;18.40;99.90
15113;DHT22;7657;50.140;7.076;2023-07-20T07:53:39;18.30;99.90
15113;DHT22;7657;50.140;7.076;2023-07-20T07:56:07;18.20;99.90
15113;DHT22;7657;50.140;7.076;2023-07-20T07:58:34;18.20;99.90
15113;DHT22;7657;50.140;7.076;2023-07-20T08:01:01;18.40;99.90
15113;DHT22;7657;50.140;7.076;2023-07-20T08:03:28;18.50;99.90
15113;DHT22;7657;50.140;7.076;2023-07-20T08:05:56;18.40;99.90
15113;DHT22;7657;50.140;7.076;2023-07-20T08:08:24;18.40;99.90
15113;DHT22;7657;50.140;7.076;2023-07-20T08:10:53;18.40;99.90
15113;DHT22;7657;50.140;7.076;2023-07-20T08:13:20;18.50;99.90
15113;DHT22;7657;50.140;7.076;2023-07-20T08:15:49;18.70;99.90
15113;DHT22;7657;50.140;7.076;2023-07-20T08:18:16;18.70;99.90
15113;DHT22;7657;50.140;7.076;2023-07-20T08:20:44;18.70;99.90
15113;DHT22;7657;50.140;7.076;2023-07-20T08:23:12;18.60;99.90
15113;DHT22;7657;50.140;7.076;2023-07-20T08:25:39;18.30;99.90
15113;DHT22;7657;50.140;7.076;2023-07-20T08:28:09;18.20;99.90
15113;DHT22;7657;50.140;7.076;2023-07-20T08:30:40;18.20;99.90
15113;DHT22;7657;50.140;7.076;2023-07-20T08:33:07;18.20;99.90
15113;DHT22;7657;50.140;7.076;2023-07-20T08:35:34;18.50;99.90
15113;DHT22;7657;50.140;7.076;2023-07-20T08:38:01;18.50;99.90
15113;DHT22;7657;50.140;7.076;2023-07-20T08:40:31;18.70;99.90
15113;DHT22;7657;50.140;7.076;2023-07-20T08:42:58;18.70;99.90
15113;DHT22;7657;50.140;7.076;2023-07-20T08:45:27;18.60;99.90
15113;DHT22;7657;50.140;7.076;2023-07-20T08:47:55;18.50;99.90
15113;DHT22;7657;50.140;7.076;2023-07-20T08:50:23;18.50;99.90
15113;DHT22;7657;50.140;7.076;2023-07-20T08:52:52;18.60;99.90
15113;DHT22;7657;50.140;7.076;2023-07-20T08:55:20;18.70;99.90
15113;DHT22;7657;50.140;7.076;2023-07-20T08:57:50;18.70;99.90
15113;DHT22;7657;50.140;7.076;2023-07-20T09:00:20;18.70;99.90
15113;DHT22;7657;50.140;7.076;2023-07-20T09:02:49;18.70;99.90
15113;DHT22;7657;50.140;7.076;2023-07-20T09:05:17;18.80;99.90
15113;DHT22;7657;50.140;7.076;2023-07-20T09:07:43;18.80;99.90
15113;DHT22;7657;50.140;7.076;2023-07-20T09:10:11;18.80;99.90
15113;DHT22;7657;50.140;7.076;2023-07-20T09:12:39;18.90;99.90
15113;DHT22;7657;50.140;7.076;2023-07-20T09:15:09;19.00;99.90
15113;DHT22;7657;50.140;7.076;2023-07-20T09:17:36;19.20;99.90
15113;DHT22;7657;50.140;7.076;2023-07-20T09:20:05;19.20;99.90
15113;DHT22;7657;50.140;7.076;2023-07-20T09:22:35;19.20;99.90
15113;DHT22;7657;50.140;7.076;2023-07-20T09:25:06;19.10;99.90
15113;DHT22;7657;50.140;7.076;2023-07-20T09:27:36;19.20;99.90
15113;DHT22;7657;50.140;7.076;2023-07-20T09:30:06;19.20;99.90
15113;DHT22;7657;50.140;7.076;2023-07-20T09:32:39;19.20;99.90
15113;DHT22;7657;50.140;7.076;2023-07-20T09:35:07;19.20;99.90
15113;DHT22;7657;50.140;7.076;2023-07-20T09:37:39;19.30;99.90
15113;DHT22;7657;50.140;7.076;2023-07-20T09:40:07;19.30;99.90
15113;DHT22;7657;50.140;7.076;2023-07-20T09:42:36;19.30;99.90
15113;DHT22;7657;50.140;7.076;2023-07-20T09:45:08;19.40;99.90
15113;DHT22;7657;50.140;7.076;2023-07-20T09:47:36;19.40;99.90
15113;DHT22;7657;50.140;7.076;2023-07-20T09:50:05;19.50;99.90
15113;DHT22;7657;50.140;7.076;2023-07-20T09:52:37;19.60;99.90
15113;DHT22;7657;50.140;7.076;2023-07-20T09:55:07;19.60;99.90
15113;DHT22;7657;50.140;7.076;2023-07-20T09:57:35;19.70;99.90
15113;DHT22;7657;50.140;7.076;2023-07-20T10:00:04;19.80;99.90
15113;DHT22;7657;50.140;7.076;2023-07-20T10:02:41;20.00;99.90
15113;DHT22;7657;50.140;7.076;2023-07-20T10:05:11;20.10;99.90
15113;DHT22;7657;50.140;7.076;2023-07-20T10:07:43;20.10;99.90
15113;DHT22;7657;50.140;7.076;2023-07-20T10:10:11;20.00;99.90
15113;DHT22;7657;50.140;7.076;2023-07-20T10:12:39;20.00;99.90
15113;DHT22;7657;50.140;7.076;2023-07-20T10:15:12;20.10;99.90
15113;DHT22;7657;50.140;7.076;2023-07-20T10:17:49;20.20;99.90
15113;DHT22;7657;50.140;7.076;2023-07-20T10:20:20;20.30;99.90
15113;DHT22;7657;50.140;7.076;2023-07-20T10:22:48;20.50;99.90
15113;DHT22;7657;50.140;7.076;2023-07-20T10:25:17;20.60;99.90
15113;DHT22;7657;50.140;7.076;2023-07-20T10:27:45;20.60;99.90
15113;DHT22;7657;50.140;7.076;2023-07-20T10:30:12;20.60;99.90
15113;DHT22;7657;50.140;7.076;2023-07-20T10:32:42;20.70;99.90
15113;DHT22;7657;50.140;7.076;2023-07-20T10:35:13;20.70;99.90
15113;DHT22;7657;50.140;7.076;2023-07-20T10:37:51;20.80;99.90
15113;DHT22;7657;50.140;7.076;2023-07-20T10:40:28;20.80;99.90
15113;DHT22;7657;50.140;7.076;2023-07-20T10:42:59;20.70;99.90
15113;DHT22;7657;50.140;7.076;2023-07-20T10:45:34;20.80;99.90
15113;DHT22;7657;50.140;7.076;2023-07-20T10:48:04;20.80;99.90
15113;DHT22;7657;50.140;7.076;2023-07-20T10:50:32;20.60;99.90
15113;DHT22;7657;50.140;7.076;2023-07-20T10:53:11;20.60;99.90
15113;DHT22;7657;50.140;7.076;2023-07-20T10:55:38;20.80;99.90
15113;DHT22;7657;50.140;7.076;2023-07-20T10:58:10;20.80;99.90
15113;DHT22;7657;50.140;7.076;2023-07-20T11:00:37;20.70;99.90
15113;DHT22;7657;50.140;7.076;2023-07-20T11:03:06;20.90;99.90
15113;DHT22;7657;50.140;7.076;2023-07-20T11:05:38;20.90;99.90
15113;DHT22;7657;50.140;7.076;2023-07-20T11:08:07;20.90;99.90
15113;DHT22;7657;50.140;7.076;2023-07-20T11:10:35;20.90;99.90
15113;DHT22;7657;50.140;7.076;2023-07-20T11:13:22;21.00;99.90
15113;DHT22;7657;50.140;7.076;2023-07-20T11:16:04;21.00;99.90
15113;DHT22;7657;50.140;7.076;2023-07-20T11:18:34;21.20;99.90
15113;DHT22;7657;50.140;7.076;2023-07-20T11:21:09;21.30;99.90
15113;DHT22;7657;50.140;7.076;2023-07-20T11:23:38;21.30;99.90
15113;DHT22;7657;50.140;7.076;2023-07-20T11:26:05;21.20;99.90
15113;DHT22;7657;50.140;7.076;2023-07-20T11:28:34;21.30;99.90
15113;DHT22;7657;50.140;7.076;2023-07-20T11:31:01;21.30;99.90
15113;DHT22;7657;50.140;7.076;2023-07-20T11:33:28;21.40;99.90
15113;DHT22;7657;50.140;7.076;2023-07-20T11:35:56;21.40;99.90
15113;DHT22;7657;50.140;7.076;2023-07-20T11:38:24;21.50;99.90
15113;DHT22;7657;50.140;7.076;2023-07-20T11:40:51;21.40;99.90
15113;DHT22;7657;50.140;7.076;2023-07-20T11:43:18;21.40;99.90
15113;DHT22;7657;50.140;7.076;2023-07-20T11:45:46;21.50;99.90
15113;DHT22;7657;50.140;7.076;2023-07-20T11:48:15;21.50;99.90
15113;DHT22;7657;50.140;7.076;2023-07-20T11:50:42;21.40;99.90
15113;DHT22;7657;50.140;7.076;2023-07-20T11:53:10;21.40;99.90
15113;DHT22;7657;50.140;7.076;2023-07-20T11:55:38;21.50;99.90
15113;DHT22;7657;50.140;7.076;2023-07-20T11:58:07;21.50;99.90
15113;DHT22;7657;50.140;7.076;2023-07-20T12:00:36;21.50;99.90
15113;DHT22;7657;50.140;7.076;2023-07-20T12:03:05;21.50;99.90
15113;DHT22;7657;50.140;7.076;2023-07-20T12:05:33;21.50;99.90
15113;DHT22;7657;50.140;7.076;2023-07-20T12:08:00;21.60;99.90
15113;DHT22;7657;50.140;7.076;2023-07-20T12:10:28;21.60;99.90
15113;DHT22;7657;50.140;7.076;2023-07-20T12:13:01;21.60;99.90
15113;DHT22;7657;50.140;7.076;2023-07-20T12:15:29;21.50;99.90
15113;DHT22;7657;50.140;7.076;2023-07-20T12:17:59;21.50;99.90
15113;DHT22;7657;50.140;7.076;2023-07-20T12:20:27;21.60;99.90
15113;DHT22;7657;50.140;7.076;2023-07-20T12:22:57;21.60;99.90
15113;DHT22;7657;50.140;7.076;2023-07-20T12:25:36;21.60;99.90
15113;DHT22;7657;50.140;7.076;2023-07-20T12:28:05;21.70;99.90
15113;DHT22;7657;50.140;7.076;2023-07-20T12:30:32;21.70;99.90
15113;DHT22;7657;50.140;7.076;2023-07-20T12:32:59;21.60;99.90
15113;DHT22;7657;50.140;7.076;2023-07-20T12:35:26;21.60;99.90
15113;DHT22;7657;50.140;7.076;2023-07-20T12:37:53;21.70;99.90
15113;DHT22;7657;50.140;7.076;2023-07-20T12:40:20;21.70;99.90
15113;DHT22;7657;50.140;7.076;2023-07-20T12:42:48;21.90;99.90
15113;DHT22;7657;50.140;7.076;2023-07-20T12:45:15;22.00;99.90
15113;DHT22;7657;50.140;7.076;2023-07-20T12:47:42;22.00;99.90
15113;DHT22;7657;50.140;7.076;2023-07-20T12:50:10;22.10;99.90
15113;DHT22;7657;50.140;7.076;2023-07-20T12:52:37;22.20;99.90
15113;DHT22;7657;50.140;7.076;2023-07-20T12:55:05;22.10;99.90
15113;DHT22;7657;50.140;7.076;2023-07-20T12:57:33;22.30;99.90
15113;DHT22;7657;50.140;7.076;2023-07-20T13:00:02;22.40;99.90
15113;DHT22;7657;50.140;7.076;2023-07-20T13:02:30;22.50;99.90
15113;DHT22;7657;50.140;7.076;2023-07-20T13:04:57;22.60;99.90
15113;DHT22;7657;50.140;7.076;2023-07-20T13:07:30;22.70;99.90
15113;DHT22;7657;50.140;7.076;2023-07-20T13:09:57;22.70;99.90
15113;DHT22;7657;50.140;7.076;2023-07-20T13:12:26;22.80;99.90
15113;DHT22;7657;50.140;7.076;2023-07-20T13:14:54;22.80;99.90
15113;DHT22;7657;50.140;7.076;2023-07-20T13:17:22;22.90;99.90
15113;DHT22;7657;50.140;7.076;2023-07-20T13:19:50;22.90;99.90
15113;DHT22;7657;50.140;7.076;2023-07-20T13:22:17;22.90;99.90
15113;DHT22;7657;50.140;7.076;2023-07-20T13:24:45;22.90;99.90
15113;DHT22;7657;50.140;7.076;2023-07-20T13:27:14;22.80;99.90
15113;DHT22;7657;50.140;7.076;2023-07-20T13:29:41;22.90;99.90
15113;DHT22;7657;50.140;7.076;2023-07-20T13:32:09;22.90;99.90
15113;DHT22;7657;50.140;7.076;2023-07-20T13:34:37;22.90;99.90
15113;DHT22;7657;50.140;7.076;2023-07-20T13:37:05;22.80;99.90
15113;DHT22;7657;50.140;7.076;2023-07-20T13:39:32;22.90;99.90
15113;DHT22;7657;50.140;7.076;2023-07-20T13:41:58;23.00;99.90
15113;DHT22;7657;50.140;7.076;2023-07-20T13:44:27;23.00;99.90
15113;DHT22;7657;50.140;7.076;2023-07-20T13:46:54;23.00;99.90
15113;DHT22;7657;50.140;7.076;2023-07-20T13:49:20;22.90;99.90
15113;DHT22;7657;50.140;7.076;2023-07-20T13:51:49;22.90;99.90
15113;DHT22;7657;50.140;7.076;2023-07-20T13:54:16;22.90;99.90
15113;DHT22;7657;50.140;7.076;2023-07-20T13:56:43;22.90;99.90
15113;DHT22;7657;50.140;7.076;2023-07-20T13:59:09;23.10;99.90
15113;DHT22;7657;50.140;7.076;2023-07-20T14:01:36;23.20;99.90
15113;DHT22;7657;50.140;7.076;2023-07-20T14:04:03;23.20;99.90
15113;DHT22;7657;50.140;7.076;2023-07-20T14:06:31;23.20;99.90
15113;DHT22;7657;50.140;7.076;2023-07-20T14:09:00;23.10;99.90
15113;DHT22;7657;50.140;7.076;2023-07-20T14:11:27;23.10;99.90
15113;DHT22;7657;50.140;7.076;2023-07-20T14:13:53;23.10;99.90
15113;DHT22;7657;50.140;7.076;2023-07-20T14:16:20;23.10;99.90
15113;DHT22;7657;50.140;7.076;2023-07-20T14:18:48;23.10;99.90
15113;DHT22;7657;50.140;7.076;2023-07-20T14:21:15;23.10;99.90
15113;DHT22;7657;50.140;7.076;2023-07-20T14:23:44;23.10;99.90
15113;DHT22;7657;50.140;7.076;2023-07-20T14:26:12;23.20;99.90
15113;DHT22;7657;50.140;7.076;2023-07-20T14:28:39;23.20;99.90
15113;DHT22;7657;50.140;7.076;2023-07-20T14:31:06;23.10;99.90
15113;DHT22;7657;50.140;7.076;2023-07-20T14:33:33;23.10;99.90
15113;DHT22;7657;50.140;7.076;2023-07-20T14:36:00;23.20;99.90
15113;DHT22;7657;50.140;7.076;2023-07-20T14:38:28;23.30;99.90
15113;DHT22;7657;50.140;7.076;2023-07-20T14:40:55;23.30;99.90
15113;DHT22;7657;50.140;7.076;2023-07-20T14:43:23;23.80;99.90
15113;DHT22;7657;50.140;7.076;2023-07-20T14:45:50;24.40;99.90
15113;DHT22;7657;50.140;7.076;2023-07-20T14:48:17;24.70;99.90
15113;DHT22;7657;50.140;7.076;2023-07-20T14:50:44;24.70;99.90
15113;DHT22;7657;50.140;7.076;2023-07-20T14:53:12;25.20;98.90
15113;DHT22;7657;50.140;7.076;2023-07-20T14:55:40;25.20;98.40
15113;DHT22;7657;50.140;7.076;2023-07-20T14:58:07;25.30;98.40
15113;DHT22;7657;50.140;7.076;2023-07-20T15:00:35;25.30;97.90
15113;DHT22;7657;50.140;7.076;2023-07-20T15:03:02;25.20;97.50
15113;DHT22;7657;50.140;7.076;2023-07-20T15:05:31;25.10;96.70
15113;DHT22;7657;50.140;7.076;2023-07-20T15:07:58;24.90;96.10
15113;DHT22;7657;50.140;7.076;2023-07-20T15:10:25;24.70;95.40
15113;DHT22;7657;50.140;7.076;2023-07-20T15:12:52;24.50;95.30
15113;DHT22;7657;50.140;7.076;2023-07-20T15:15:19;24.50;95.80
15113;DHT22;7657;50.140;7.076;2023-07-20T15:17:47;24.40;95.40
15113;DHT22;7657;50.140;7.076;2023-07-20T15:20:16;24.30;95.80
15113;DHT22;7657;50.140;7.076;2023-07-20T15:22:43;24.20;95.50
15113;DHT22;7657;50.140;7.076;2023-07-20T15:25:10;24.20;95.30
15113;DHT22;7657;50.140;7.076;2023-07-20T15:27:38;24.20;94.90
15113;DHT22;7657;50.140;7.076;2023-07-20T15:30:07;24.20;95.20
15113;DHT22;7657;50.140;7.076;2023-07-20T15:32:34;24.00;94.80
15113;DHT22;7657;50.140;7.076;2023-07-20T15:35:03;24.00;94.90
15113;DHT22;7657;50.140;7.076;2023-07-20T15:37:31;24.00;95.10
15113;DHT22;7657;50.140;7.076;2023-07-20T15:39:58;24.00;95.30
15113;DHT22;7657;50.140;7.076;2023-07-20T15:42:26;23.90;95.30
15113;DHT22;7657;50.140;7.076;2023-07-20T15:44:52;23.90;95.20
15113;DHT22;7657;50.140;7.076;2023-07-20T15:47:19;23.90;95.30
15113;DHT22;7657;50.140;7.076;2023-07-20T15:49:46;23.90;95.70
15113;DHT22;7657;50.140;7.076;2023-07-20T15:52:14;23.80;95.10